Time;durP1;ratioP1;P1;durP2;ratioP2;P2;SDS_P1;SDS_P2;PMS_P1;PMS_P2;Temp;Humidity;BMP_temperature;BMP_pressure;BME280_temperature;BME280_humidity;BME280_pressure;Samples;Min_cycle;Max_cycle;Signal;HPM_P1;HPM_P2
2023/07/01 00:01:00;;;;;;;;;2.75;1.75;;;;;23.27;47.59;100567.63;2104684;28;46486;-64
2023/07/01 00:02:00;;;;;;;;;0.75;0.75;;;;;23.26;47.34;100574.88;2105445;28;45614;-66
2023/07/01 00:03:03;;;;;;;;;2.00;2.00;;;;;23.26;47.60;100571.31;2104094;27;45479;-65
2023/07/01 00:04:04;;;;;;;;;1.80;1.60;;;;;23.25;47.75;100562.34;2105048;28;46149;-65
2023/07/01 00:05:04;;;;;;;;;2.50;2.50;;;;;23.25;47.38;100561.44;2104245;28;45826;-65
2023/07/01 00:06:05;;;;;;;;;2.25;2.25;;;;;23.25;47.91;100578.59;2104589;28;46813;-65
2023/07/01 00:07:05;;;;;;;;;3.00;1.00;;;;;23.24;47.90;100563.28;2104870;28;46961;-65
2023/07/01 00:08:05;;;;;;;;;3.00;3.00;;;;;23.22;47.54;100564.38;2105174;28;45986;-62
2023/07/01 00:09:05;;;;;;;;;1.00;1.00;;;;;23.22;48.12;100561.69;2104744;28;46700;-63
2023/07/01 00:10:06;;;;;;;;;1.75;1.00;;;;;23.22;48.07;100564.38;2096188;28;45531;-66
2023/07/01 00:11:07;;;;;;;;;1.75;1.75;;;;;23.20;48.07;100564.50;2095015;28;45712;-64
2023/07/01 00:12:07;;;;;;;;;1.00;1.00;;;;;23.20;47.96;100562.66;2079868;28;45067;-65
2023/07/01 00:13:08;;;;;;;;;1.00;1.00;;;;;23.22;48.38;100569.81;2078833;28;46476;-64
2023/07/01 00:14:08;;;;;;;;;1.00;1.00;;;;;23.22;48.70;100558.97;2105163;28;45558;-64
2023/07/01 00:15:09;;;;;;;;;1.00;1.00;;;;;23.20;48.95;100557.25;2105276;28;46496;-63
2023/07/01 00:16:13;;;;;;;;;1.40;0.80;;;;;23.19;49.29;100569.06;2100522;28;45995;-64
2023/07/01 00:17:16;;;;;;;;;1.00;1.00;;;;;23.18;49.14;100561.94;2105691;28;45972;-65
2023/07/01 00:18:16;;;;;;;;;1.60;1.40;;;;;23.17;48.96;100556.63;2104969;28;45106;-64
2023/07/01 00:19:17;;;;;;;;;3.25;3.00;;;;;23.14;49.21;100557.75;2105123;28;46172;-65
2023/07/01 00:20:18;;;;;;;;;1.40;1.20;;;;;23.14;49.53;100562.28;2105046;28;46391;-65
2023/07/01 00:21:18;;;;;;;;;1.00;1.00;;;;;23.14;49.66;100565.88;2104866;28;45675;-64
2023/07/01 00:22:19;;;;;;;;;2.00;2.00;;;;;23.14;49.47;100563.16;2105179;28;45343;-64
2023/07/01 00:23:19;;;;;;;;;0.50;0.50;;;;;23.16;49.78;100557.63;2105092;28;45658;-64
2023/07/01 00:24:19;;;;;;;;;2.00;2.00;;;;;23.14;49.91;100552.31;2104462;28;46234;-65
2023/07/01 00:25:20;;;;;;;;;0.75;0.75;;;;;23.15;49.91;100564.88;2105141;28;45582;-64
2023/07/01 00:26:20;;;;;;;;;1.50;1.50;;;;;23.13;49.80;100550.59;2104823;28;46578;-65
2023/07/01 00:27:20;;;;;;;;;1.00;1.00;;;;;23.12;50.01;100546.16;2104985;28;46284;-65
2023/07/01 00:28:21;;;;;;;;;1.00;1.00;;;;;23.12;50.23;100553.41;2105186;28;45237;-64
2023/07/01 00:29:21;;;;;;;;;0.00;0.00;;;;;23.10;50.33;100548.09;2104304;28;45600;-64
2023/07/01 00:30:21;;;;;;;;;0.50;0.25;;;;;23.09;50.79;100548.22;2104346;28;46188;-64
2023/07/01 00:31:22;;;;;;;;;0.00;0.00;;;;;23.07;50.52;100558.31;2105040;28;45447;-64
2023/07/01 00:32:22;;;;;;;;;0.00;0.00;;;;;23.04;50.91;100543.19;2100663;28;45060;-64
2023/07/01 00:33:23;;;;;;;;;1.00;1.00;;;;;23.02;50.57;100537.03;2096055;28;45889;-64
2023/07/01 00:34:23;;;;;;;;;1.00;1.00;;;;;23.02;51.23;100538.88;2100602;28;45794;-64
2023/07/01 00:35:24;;;;;;;;;1.50;1.50;;;;;23.00;51.23;100532.72;2111532;27;45582;-64
2023/07/01 00:36:24;;;;;;;;;1.00;1.00;;;;;23.01;51.16;100540.72;2103877;27;45779;-63
2023/07/01 00:37:24;;;;;;;;;0.50;0.50;;;;;23.02;50.84;100536.16;2099569;28;46742;-65
2023/07/01 00:38:25;;;;;;;;;1.00;1.00;;;;;23.02;50.30;100537.03;2099715;28;46366;-62
2023/07/01 00:39:25;;;;;;;;;1.25;1.25;;;;;23.02;51.22;100536.16;2102051;28;45788;-64
2023/07/01 00:40:25;;;;;;;;;1.00;0.67;;;;;23.01;51.13;100539.84;2105070;28;45575;-65
2023/07/01 00:41:26;;;;;;;;;0.33;0.33;;;;;23.01;51.28;100537.13;2105134;28;46828;-65
2023/07/01 00:42:26;;;;;;;;;2.00;1.00;;;;;22.99;51.29;100528.25;2095624;28;46668;-64
2023/07/01 00:43:26;;;;;;;;;2.00;2.00;;;;;22.98;51.48;100535.50;2096158;28;45631;-64
2023/07/01 00:44:27;;;;;;;;;0.67;0.67;;;;;22.98;51.39;100534.66;2105136;28;45502;-65
2023/07/01 00:45:27;;;;;;;;;2.00;2.00;;;;;22.96;51.65;100523.09;2103837;28;45922;-65
2023/07/01 00:46:27;;;;;;;;;0.00;0.00;;;;;22.94;51.32;100534.03;2105346;28;45576;-64
2023/07/01 00:47:28;;;;;;;;;1.33;1.33;;;;;22.92;51.54;100525.16;2102035;28;45563;-63
2023/07/01 00:48:29;;;;;;;;;1.00;1.00;;;;;22.93;51.51;100529.59;2105509;28;45698;-65
2023/07/01 00:49:30;;;;;;;;;0.67;0.67;;;;;22.92;52.04;100518.88;2104731;28;46509;-66
2023/07/01 00:50:30;;;;;;;;;1.25;1.25;;;;;22.92;51.78;100521.59;2104775;28;46082;-65
2023/07/01 00:51:31;;;;;;;;;1.67;1.00;;;;;22.90;51.87;100530.69;2105674;28;45618;-65
2023/07/01 00:52:31;;;;;;;;;0.00;0.00;;;;;22.89;51.82;100511.88;2104920;28;46551;-64
2023/07/01 00:53:32;;;;;;;;;0.00;0.00;;;;;22.88;52.17;100526.38;2104787;28;45998;-65
2023/07/01 00:54:34;;;;;;;;;1.33;1.33;;;;;22.86;52.37;100520.19;2104442;28;46782;-63
2023/07/01 00:55:34;;;;;;;;;1.00;1.00;;;;;22.84;52.41;100511.34;2096060;28;46068;-64
2023/07/01 00:56:35;;;;;;;;;0.33;0.00;;;;;22.81;52.47;100515.13;2096099;28;45574;-65
2023/07/01 00:57:36;;;;;;;;;2.00;2.00;;;;;22.82;52.87;100521.38;2097837;28;45036;-65
2023/07/01 00:58:36;;;;;;;;;3.00;2.00;;;;;22.78;52.96;100509.94;2096306;28;45907;-63
2023/07/01 00:59:36;;;;;;;;;0.67;0.67;;;;;22.78;52.45;100512.66;2100957;28;46013;-65
2023/07/01 01:00:37;;;;;;;;;1.00;1.00;;;;;22.80;52.97;100517.94;2098319;28;45022;-64
2023/07/01 01:01:43;;;;;;;;;1.00;1.00;;;;;22.80;52.94;100512.53;2099114;27;46488;-64
2023/07/01 01:03:07;;;;;;;;;0.00;0.00;;;;;22.78;52.63;100509.94;2105277;28;45971;-66
2023/07/01 01:04:29;;;;;;;;;0.25;0.25;;;;;22.76;52.81;100502.94;2096808;28;47263;-65
2023/07/01 01:05:39;;;;;;;;;1.00;1.00;;;;;22.75;53.13;100506.63;2103585;28;46612;-64
2023/07/01 01:06:49;;;;;;;;;0.25;0.25;;;;;22.74;53.04;100502.16;2104742;28;46420;-64
2023/07/01 01:07:56;;;;;;;;;0.00;0.00;;;;;22.75;53.15;100501.22;2105048;28;46669;-64
2023/07/01 01:09:16;;;;;;;;;1.00;1.00;;;;;22.75;53.30;100496.66;2105064;28;45824;-65
2023/07/01 01:10:24;;;;;;;;;1.50;1.25;;;;;22.73;53.44;100504.00;2105317;28;45316;-64
2023/07/01 01:11:28;;;;;;;;;1.25;1.25;;;;;22.71;53.55;100505.09;2105046;28;45057;-64
2023/07/01 01:12:30;;;;;;;;;2.00;2.00;;;;;22.68;53.45;100506.22;2104847;28;46044;-64
2023/07/01 01:13:32;;;;;;;;;1.50;1.50;;;;;22.65;53.39;100498.34;2104547;28;47083;-63
2023/07/01 01:14:33;;;;;;;;;1.00;1.00;;;;;22.61;53.91;100497.72;2105055;27;45835;-63
2023/07/01 01:15:34;;;;;;;;;0.50;0.50;;;;;22.59;54.22;100496.94;2097956;28;45160;-65
2023/07/01 01:16:35;;;;;;;;;0.33;0.33;;;;;22.57;54.25;100492.63;2097134;28;45485;-64
2023/07/01 01:17:40;;;;;;;;;0.75;0.75;;;;;22.57;54.84;100495.31;2097804;28;46356;-63
2023/07/01 01:18:43;;;;;;;;;0.50;0.00;;;;;22.55;54.53;100498.16;2097681;28;46410;-64
2023/07/01 01:19:58;;;;;;;;;0.00;0.00;;;;;22.52;54.57;100501.09;2097829;28;46527;-65
2023/07/01 01:20:59;;;;;;;;;0.25;0.25;;;;;22.51;55.45;100495.81;2097080;28;46764;-64
2023/07/01 01:22:22;;;;;;;;;1.00;1.00;;;;;22.49;55.24;100493.22;2097293;28;45669;-65
2023/07/01 01:23:32;;;;;;;;;0.50;0.50;;;;;22.49;54.92;100495.06;2097871;28;46810;-64
2023/07/01 01:24:37;;;;;;;;;0.75;0.75;;;;;22.49;55.72;100490.50;2097460;28;46503;-64
2023/07/01 01:25:46;;;;;;;;;1.75;1.75;;;;;22.49;55.41;100490.50;2097788;28;46575;-64
2023/07/01 01:26:49;;;;;;;;;1.50;1.50;;;;;22.47;55.40;100492.44;2097487;28;48044;-64
2023/07/01 01:27:53;;;;;;;;;1.75;1.75;;;;;22.45;55.56;100489.00;2097620;28;46392;-65
2023/07/01 01:28:55;;;;;;;;;3.25;1.25;;;;;22.43;55.95;100479.28;2098555;28;45568;-64
2023/07/01 01:29:55;;;;;;;;;0.75;0.75;;;;;22.41;56.18;100501.03;2097911;28;46741;-64
2023/07/01 01:30:55;;;;;;;;;3.00;3.00;;;;;22.39;56.36;100489.47;2099739;28;45406;-63
2023/07/01 01:31:56;;;;;;;;;2.00;2.00;;;;;22.37;56.13;100485.16;2106317;28;46290;-63
2023/07/01 01:32:56;;;;;;;;;3.00;3.00;;;;;22.36;56.96;100486.09;2105900;27;46463;-63
2023/07/01 01:33:56;;;;;;;;;4.00;3.00;;;;;22.32;57.00;100485.47;2101692;28;46440;-63
2023/07/01 01:34:57;;;;;;;;;4.00;3.33;;;;;22.30;57.60;100487.44;2110590;27;45462;-64
2023/07/01 01:36:09;;;;;;;;;4.00;3.00;;;;;22.28;57.80;100481.28;2110610;27;45475;-64
2023/07/01 01:37:18;;;;;;;;;3.20;3.20;;;;;22.26;57.85;100476.00;2105881;28;46863;-64
2023/07/01 01:38:20;;;;;;;;;5.00;5.00;;;;;22.26;57.65;100480.53;2101997;28;45706;-64
2023/07/01 01:39:25;;;;;;;;;6.00;6.00;;;;;22.26;59.08;100475.13;2098409;28;46113;-63
2023/07/01 01:40:33;;;;;;;;;5.00;5.00;;;;;22.22;59.23;100479.88;2091225;28;45677;-64
2023/07/01 01:41:43;;;;;;;;;3.25;3.25;;;;;22.17;59.86;100478.50;2098062;28;46261;-65
2023/07/01 01:42:45;;;;;;;;;5.60;5.00;;;;;22.13;60.53;100477.03;2099680;28;46665;-64
2023/07/01 01:43:56;;;;;;;;;1.50;1.50;;;;;22.07;60.36;100481.03;2100444;28;45709;-64
2023/07/01 01:44:57;;;;;;;;;4.00;3.50;;;;;22.04;59.88;100486.63;2106371;28;46183;-63
2023/07/01 01:45:58;;;;;;;;;2.50;1.75;;;;;22.01;60.41;100476.91;2105807;28;46423;-64
2023/07/01 01:46:59;;;;;;;;;1.00;1.00;;;;;21.98;60.57;100470.88;2101925;27;45581;-63
2023/07/01 01:48:00;;;;;;;;;2.00;2.00;;;;;21.95;60.90;100474.63;2106033;28;46790;-64
2023/07/01 01:49:03;;;;;;;;;1.00;1.00;;;;;21.93;60.76;100471.19;2105684;28;46530;-64
2023/07/01 01:50:09;;;;;;;;;3.25;2.00;;;;;21.91;60.35;100472.28;2106127;28;46625;-64
2023/07/01 01:51:10;;;;;;;;;1.00;1.00;;;;;21.90;59.99;100463.31;2105998;28;45684;-63
2023/07/01 01:52:15;;;;;;;;;1.67;1.67;;;;;21.92;59.90;100468.59;2106040;28;45696;-64
2023/07/01 01:53:17;;;;;;;;;1.25;1.25;;;;;21.93;60.02;100465.78;2105983;28;46404;-64
2023/07/01 01:54:19;;;;;;;;;2.75;2.75;;;;;21.94;59.70;100467.50;2097645;28;46372;-65
2023/07/01 01:55:20;;;;;;;;;2.25;2.25;;;;;21.97;59.24;100459.16;2097654;28;45805;-64
2023/07/01 01:56:21;;;;;;;;;1.50;1.50;;;;;21.97;59.68;100458.31;2106718;28;45753;-64
2023/07/01 01:57:22;;;;;;;;;2.00;2.00;;;;;21.97;59.87;100461.00;2106166;28;44945;-63
2023/07/01 01:58:22;;;;;;;;;2.50;2.50;;;;;21.96;59.11;100453.88;2106207;28;45507;-64
2023/07/01 01:59:22;;;;;;;;;2.00;2.00;;;;;21.95;60.20;100457.56;2105330;28;45683;-62
2023/07/01 02:00:23;;;;;;;;;2.00;2.00;;;;;21.95;59.85;100457.56;2105576;28;44970;-66
2023/07/01 02:01:24;;;;;;;;;2.25;2.00;;;;;21.93;60.03;100463.06;2096836;28;46908;-63
2023/07/01 02:02:24;;;;;;;;;2.75;2.00;;;;;21.92;60.20;100460.50;2097155;28;46418;-64
2023/07/01 02:03:25;;;;;;;;;1.00;1.00;;;;;21.94;60.06;100462.09;2101734;28;44970;-64
2023/07/01 02:04:25;;;;;;;;;1.33;1.33;;;;;21.93;60.18;100462.22;2097505;28;46632;-65
2023/07/01 02:05:25;;;;;;;;;1.50;1.50;;;;;21.91;59.64;100466.88;2097835;28;46316;-64
2023/07/01 02:06:26;;;;;;;;;2.00;2.00;;;;;21.91;59.58;100461.47;2097706;28;45828;-64
2023/07/01 02:07:26;;;;;;;;;1.00;1.00;;;;;21.90;60.04;100457.03;2093597;28;46312;-61
2023/07/01 02:08:27;;;;;;;;;1.00;1.00;;;;;21.88;59.75;100454.47;2097236;28;47393;-59
2023/07/01 02:09:28;;;;;;;;;1.25;1.00;;;;;21.88;59.90;100457.16;2097317;28;46720;-64
2023/07/01 02:10:28;;;;;;;;;1.75;1.75;;;;;21.88;59.70;100445.50;2096601;28;46697;-64
2023/07/01 02:11:29;;;;;;;;;1.33;1.00;;;;;21.87;60.13;100459.97;2096631;28;45862;-65
2023/07/01 02:12:29;;;;;;;;;2.00;1.67;;;;;21.86;60.28;100452.84;2096526;28;45551;-65
2023/07/01 02:13:30;;;;;;;;;1.00;1.00;;;;;21.84;60.35;100444.84;2093944;28;46163;-64
2023/07/01 02:14:31;;;;;;;;;2.00;2.00;;;;;21.85;59.99;100449.28;2091371;28;45437;-64
2023/07/01 02:15:31;;;;;;;;;2.50;1.00;;;;;21.87;59.79;100443.78;2097437;28;46972;-66
2023/07/01 02:16:33;;;;;;;;;1.00;1.00;;;;;21.87;59.94;100449.19;2091198;28;45823;-64
2023/07/01 02:17:33;;;;;;;;;2.50;2.50;;;;;21.87;59.91;100449.19;2089905;28;46072;-65
2023/07/01 02:18:34;;;;;;;;;1.00;1.00;;;;;21.87;60.32;100441.94;2097017;28;46327;-64
2023/07/01 02:19:34;;;;;;;;;1.00;1.00;;;;;21.86;60.40;100442.03;2097060;28;46269;-65
2023/07/01 02:20:34;;;;;;;;;1.00;1.00;;;;;21.85;60.56;100429.47;2097257;28;46230;-64
2023/07/01 02:21:35;;;;;;;;;1.00;1.00;;;;;21.86;59.90;100425.84;2097764;28;45694;-64
2023/07/01 02:22:35;;;;;;;;;3.67;1.67;;;;;21.85;60.17;100429.47;2097558;28;45931;-64
2023/07/01 02:23:36;;;;;;;;;2.00;2.00;;;;;21.84;60.50;100425.91;2094665;28;45546;-65
2023/07/01 02:24:36;;;;;;;;;3.00;2.33;;;;;21.84;60.31;100428.63;2095300;28;46708;-65
2023/07/01 02:25:36;;;;;;;;;2.33;2.00;;;;;21.85;60.50;100434.88;2097110;28;46050;-64
2023/07/01 02:26:36;;;;;;;;;4.00;2.75;;;;;21.84;60.78;100425.06;2096186;28;46699;-64
2023/07/01 02:27:37;;;;;;;;;2.75;2.75;;;;;21.85;60.58;100432.19;2098116;28;45781;-64
2023/07/01 02:28:37;;;;;;;;;1.00;1.00;;;;;21.84;60.25;100428.63;2097004;28;45662;-64
2023/07/01 02:29:38;;;;;;;;;0.67;0.67;;;;;21.84;60.21;100425.91;2097417;28;45569;-65
2023/07/01 02:30:38;;;;;;;;;0.67;0.67;;;;;21.84;60.05;100434.03;2091580;28;46684;-63
2023/07/01 02:31:38;;;;;;;;;1.00;1.00;;;;;21.85;60.39;100421.38;2097317;28;45042;-64
2023/07/01 02:32:39;;;;;;;;;2.00;1.33;;;;;21.85;60.25;100419.56;2094675;28;45706;-64
2023/07/01 02:33:39;;;;;;;;;2.00;2.00;;;;;21.85;60.62;100422.28;2097851;28;45752;-65
2023/07/01 02:34:40;;;;;;;;;1.33;1.33;;;;;21.84;60.37;100425.91;2091412;28;45567;-66
2023/07/01 02:35:40;;;;;;;;;0.00;0.00;;;;;21.84;60.17;100420.53;2097450;28;45770;-65
2023/07/01 02:36:43;;;;;;;;;2.33;2.33;;;;;21.83;60.38;100418.78;2096369;28;45035;-64
2023/07/01 02:37:43;;;;;;;;;0.50;0.50;;;;;21.83;60.96;100413.38;2096829;28;46921;-65
2023/07/01 02:38:43;;;;;;;;;2.00;2.00;;;;;21.84;60.64;100414.25;2096110;28;45193;-64
2023/07/01 02:39:46;;;;;;;;;2.00;1.00;;;;;21.84;60.47;100411.56;2096773;28;45290;-65
2023/07/01 02:40:46;;;;;;;;;2.25;1.25;;;;;21.84;60.46;100414.25;2096907;28;46707;-65
2023/07/01 02:41:47;;;;;;;;;2.67;2.00;;;;;21.83;60.33;100413.38;2097811;28;45999;-65
2023/07/01 02:42:47;;;;;;;;;1.00;0.67;;;;;21.85;60.84;100414.16;2096558;28;46091;-65
2023/07/01 02:43:47;;;;;;;;;2.00;2.00;;;;;21.84;60.94;100407.00;2088606;28;45510;-64
2023/07/01 02:44:48;;;;;;;;;1.00;1.00;;;;;21.84;60.70;100406.16;2088352;28;45724;-64
2023/07/01 02:45:49;;;;;;;;;2.00;2.00;;;;;21.83;60.57;100409.81;2096551;28;45073;-65
2023/07/01 02:46:49;;;;;;;;;1.00;0.67;;;;;21.83;60.92;100405.28;2098014;28;45530;-65
2023/07/01 02:47:49;;;;;;;;;2.33;2.33;;;;;21.84;60.96;100400.75;2097273;28;46190;-64
2023/07/01 02:48:49;;;;;;;;;2.33;2.33;;;;;21.84;60.89;100403.44;2097354;28;45724;-65
2023/07/01 02:49:50;;;;;;;;;2.00;2.00;;;;;21.85;61.01;100403.38;2096734;28;46315;-64
2023/07/01 02:50:50;;;;;;;;;0.33;0.33;;;;;21.84;60.97;100398.91;2097144;28;45432;-65
2023/07/01 02:51:50;;;;;;;;;4.00;2.00;;;;;21.86;60.64;100402.38;2097129;28;45438;-65
2023/07/01 02:52:51;;;;;;;;;1.00;1.00;;;;;21.86;60.77;100407.78;2097403;28;46290;-64
2023/07/01 02:53:51;;;;;;;;;2.00;1.67;;;;;21.87;61.35;100395.16;2096790;28;46062;-65
2023/07/01 02:54:51;;;;;;;;;2.00;1.67;;;;;21.86;61.22;100398.81;2097216;28;46154;-65
2023/07/01 02:55:52;;;;;;;;;2.00;2.00;;;;;21.86;61.27;100404.22;2090534;28;45582;-65
2023/07/01 02:56:52;;;;;;;;;2.00;2.00;;;;;21.84;60.89;100407.00;2088897;28;45769;-64
2023/07/01 02:57:52;;;;;;;;;2.33;2.00;;;;;21.85;61.13;100402.47;2088498;28;46311;-65
2023/07/01 02:58:53;;;;;;;;;1.00;1.00;;;;;21.84;61.14;100390.81;2088833;28;46460;-64
2023/07/01 02:59:55;;;;;;;;;1.67;1.67;;;;;21.84;61.37;100395.34;2088840;28;46607;-65
2023/07/01 03:00:56;;;;;;;;;1.25;1.25;;;;;21.83;61.91;100393.63;2104963;28;45969;-64
2023/07/01 03:01:56;;;;;;;;;1.00;1.00;;;;;21.83;61.04;100390.91;2104444;27;46358;-63
2023/07/01 03:03:05;;;;;;;;;1.33;1.33;;;;;21.83;61.29;100399.03;2095234;28;45486;-64
2023/07/01 03:04:06;;;;;;;;;2.00;2.00;;;;;21.82;61.21;100403.56;2097142;28;45794;-65
2023/07/01 03:05:09;;;;;;;;;2.00;2.00;;;;;21.81;61.62;100396.44;2097130;28;46372;-65
2023/07/01 03:06:10;;;;;;;;;2.00;2.00;;;;;21.82;61.11;100394.59;2096945;28;45894;-65
2023/07/01 03:07:10;;;;;;;;;0.67;0.67;;;;;21.81;61.58;100392.88;2103280;28;45835;-65
2023/07/01 03:08:11;;;;;;;;;3.00;1.33;;;;;21.81;61.69;100393.75;2105937;28;46317;-66
2023/07/01 03:09:11;;;;;;;;;1.00;1.00;;;;;21.80;61.56;100394.72;2105908;28;45641;-65
2023/07/01 03:10:11;;;;;;;;;1.00;1.00;;;;;21.80;61.53;100389.31;2105610;28;46339;-65
2023/07/01 03:11:12;;;;;;;;;1.00;1.00;;;;;21.80;61.26;100391.16;2105704;28;46726;-65
2023/07/01 03:12:12;;;;;;;;;1.00;1.00;;;;;21.80;61.73;100388.44;2105075;28;45632;-64
2023/07/01 03:13:13;;;;;;;;;1.00;1.00;;;;;21.80;61.38;100396.56;2105903;28;45990;-64
2023/07/01 03:14:13;;;;;;;;;0.00;0.00;;;;;21.80;61.33;100393.84;2105432;28;45868;-63
2023/07/01 03:15:14;;;;;;;;;2.33;2.33;;;;;21.79;61.63;100386.72;2096169;28;46481;-66
2023/07/01 03:16:15;;;;;;;;;1.00;1.00;;;;;21.78;61.71;100387.72;2096458;28;46986;-64
2023/07/01 03:17:15;;;;;;;;;2.00;2.00;;;;;21.77;61.65;100385.97;2105519;28;46749;-64
2023/07/01 03:18:16;;;;;;;;;1.00;1.00;;;;;21.76;61.53;100385.13;2104921;28;45988;-64
2023/07/01 03:19:16;;;;;;;;;2.00;2.00;;;;;21.77;62.20;100381.44;2105718;28;45269;-65
2023/07/01 03:20:23;;;;;;;;;2.00;2.00;;;;;21.77;61.66;100381.44;2105124;28;46030;-63
2023/07/01 03:21:25;;;;;;;;;1.50;1.50;;;;;21.77;61.94;100388.69;2105682;28;48127;-64
2023/07/01 03:22:25;;;;;;;;;0.75;0.75;;;;;21.76;61.80;100379.72;2104875;27;46847;-64
2023/07/01 03:23:25;;;;;;;;;2.00;2.00;;;;;21.75;61.36;100383.41;2105397;28;45646;-64
2023/07/01 03:24:33;;;;;;;;;1.00;1.00;;;;;21.74;61.61;100378.97;2105741;28;45334;-64
2023/07/01 03:25:35;;;;;;;;;1.50;1.50;;;;;21.74;62.22;100379.84;2105285;28;46205;-67
2023/07/01 03:26:36;;;;;;;;;1.00;1.00;;;;;21.73;61.85;100372.72;2105749;28;45868;-64
2023/07/01 03:27:37;;;;;;;;;1.00;1.00;;;;;21.73;62.14;100380.81;2105776;28;45748;-63
2023/07/01 03:28:37;;;;;;;;;1.00;1.00;;;;;21.73;61.82;100379.94;2105844;28;45378;-64
2023/07/01 03:29:37;;;;;;;;;2.00;2.00;;;;;21.74;61.99;100378.97;2104890;28;46123;-64
2023/07/01 03:30:38;;;;;;;;;1.00;1.00;;;;;21.73;62.42;100372.72;2105093;28;46420;-63
2023/07/01 03:31:38;;;;;;;;;2.00;0.33;;;;;21.74;62.19;100376.28;2105286;28;45092;-65
2023/07/01 03:32:38;;;;;;;;;0.00;0.00;;;;;21.73;62.35;100378.13;2104617;27;46804;-64
2023/07/01 03:33:38;;;;;;;;;1.33;0.33;;;;;21.74;62.34;100373.56;2105269;28;46299;-66
2023/07/01 03:34:39;;;;;;;;;0.67;0.67;;;;;21.72;62.27;100371.00;2100746;27;45622;-65
2023/07/01 03:35:41;;;;;;;;;1.67;1.67;;;;;21.72;62.00;100373.69;2112274;27;46127;-63
2023/07/01 03:36:41;;;;;;;;;1.00;1.00;;;;;21.73;62.08;100366.44;2105314;28;47085;-64
2023/07/01 03:37:43;;;;;;;;;1.00;1.00;;;;;21.74;62.18;100378.97;2104376;27;46697;-63
2023/07/01 03:38:44;;;;;;;;;3.50;2.25;;;;;21.74;62.11;100368.16;2097509;28;45901;-64
2023/07/01 03:39:44;;;;;;;;;1.00;1.00;;;;;21.75;61.92;100369.91;2096989;28;46422;-65
2023/07/01 03:40:44;;;;;;;;;2.00;2.00;;;;;21.76;62.19;100374.31;2097317;28;45590;-65
2023/07/01 03:41:45;;;;;;;;;1.00;1.00;;;;;21.77;62.09;100367.94;2088369;28;45910;-65
2023/07/01 03:42:45;;;;;;;;;2.00;2.00;;;;;21.76;62.24;100360.81;2094524;28;45723;-64
2023/07/01 03:43:46;;;;;;;;;1.00;1.00;;;;;21.76;62.65;100376.16;2099586;28;46368;-64
2023/07/01 03:44:46;;;;;;;;;0.33;0.33;;;;;21.74;62.35;100366.34;2105415;28;45887;-65
2023/07/01 03:45:46;;;;;;;;;1.33;1.00;;;;;21.72;62.02;100360.19;2104277;28;46545;-65
2023/07/01 03:46:47;;;;;;;;;0.00;0.00;;;;;21.71;61.99;100365.66;2105487;28;46018;-63
2023/07/01 03:47:47;;;;;;;;;2.67;2.67;;;;;21.71;62.31;100357.56;2105692;28;46263;-64
2023/07/01 03:48:47;;;;;;;;;2.67;1.00;;;;;21.71;62.78;100355.72;2105340;28;45160;-64
2023/07/01 03:49:48;;;;;;;;;1.00;1.00;;;;;21.71;62.84;100358.44;2105269;28;46208;-64
2023/07/01 03:50:48;;;;;;;;;0.00;0.00;;;;;21.71;62.55;100357.56;2104996;28;45558;-64
2023/07/01 03:51:50;;;;;;;;;1.00;1.00;;;;;21.73;62.57;100366.44;2105424;28;45627;-65
2023/07/01 03:52:50;;;;;;;;;2.50;2.50;;;;;21.73;62.97;100358.34;2095563;28;46546;-65
2023/07/01 03:53:51;;;;;;;;;2.67;1.00;;;;;21.74;63.10;100355.53;2095359;28;46321;-65
2023/07/01 03:54:51;;;;;;;;;4.25;4.00;;;;;21.74;62.99;100349.25;2105243;27;45071;-65
2023/07/01 03:55:52;;;;;;;;;1.00;1.00;;;;;21.74;62.63;100358.22;2104887;28;46224;-63
2023/07/01 03:56:52;;;;;;;;;3.00;2.00;;;;;21.76;63.03;100352.72;2104286;28;46075;-64
2023/07/01 03:57:52;;;;;;;;;3.00;2.00;;;;;21.76;62.74;100354.56;2104917;28;44966;-64
2023/07/01 03:58:53;;;;;;;;;3.67;3.67;;;;;21.73;63.43;100351.09;2105142;28;45444;-64
2023/07/01 03:59:53;;;;;;;;;2.00;2.00;;;;;21.74;62.86;100357.38;2078340;28;46363;-64
2023/07/01 04:00:54;;;;;;;;;4.33;4.00;;;;;21.76;63.48;100351.84;2078918;28;46843;-63
2023/07/01 04:01:54;;;;;;;;;5.00;3.67;;;;;21.76;62.97;100357.25;2102562;28;46395;-62
2023/07/01 04:02:55;;;;;;;;;2.00;2.00;;;;;21.77;62.85;100345.47;2105138;28;46758;-65
2023/07/01 04:03:55;;;;;;;;;4.00;4.00;;;;;21.79;62.98;100351.63;2105485;27;46576;-64
2023/07/01 04:05:06;;;;;;;;;3.00;3.00;;;;;21.77;63.06;100340.94;2105417;28;46097;-63
2023/07/01 04:06:06;;;;;;;;;4.25;4.25;;;;;21.80;62.84;100345.22;2104678;28;46970;-64
2023/07/01 04:07:07;;;;;;;;;6.00;6.00;;;;;21.78;63.46;100339.94;2103880;28;46060;-65
2023/07/01 04:08:07;;;;;;;;;8.50;8.50;;;;;21.78;63.02;100344.50;2099802;28;45455;-64
2023/07/01 04:09:12;;;;;;;;;9.50;9.50;;;;;21.76;63.34;100341.03;2105450;28;45777;-65
2023/07/01 04:10:13;;;;;;;;;15.40;13.80;;;;;21.75;63.41;100337.47;2105347;28;46485;-64
2023/07/01 04:11:13;;;;;;;;;15.00;13.20;;;;;21.74;63.44;100344.72;2105234;28;45833;-66
2023/07/01 04:12:14;;;;;;;;;14.75;14.75;;;;;21.73;63.32;100345.69;2105367;28;46507;-64
2023/07/01 04:13:14;;;;;;;;;16.00;15.50;;;;;21.72;63.98;100340.38;2104101;28;47735;-64
2023/07/01 04:14:15;;;;;;;;;11.75;11.75;;;;;21.71;63.89;100342.22;2104937;28;46065;-65
2023/07/01 04:15:15;;;;;;;;;11.25;11.25;;;;;21.70;63.65;100340.50;2104705;28;45287;-65
2023/07/01 04:16:15;;;;;;;;;11.00;9.25;;;;;21.70;63.70;100345.03;2104065;28;46242;-66
2023/07/01 04:17:16;;;;;;;;;10.75;10.75;;;;;21.70;63.68;100340.50;2104978;28;45799;-66
2023/07/01 04:18:16;;;;;;;;;10.00;8.75;;;;;21.69;63.55;100337.91;2104885;28;46209;-65
2023/07/01 04:19:16;;;;;;;;;10.00;10.00;;;;;21.69;64.04;100336.06;2095854;28;46318;-64
2023/07/01 04:20:19;;;;;;;;;8.75;7.00;;;;;21.69;64.02;100340.63;2096041;28;46047;-65
2023/07/01 04:21:21;;;;;;;;;7.20;5.60;;;;;21.67;64.24;100340.75;2105178;28;45941;-63
2023/07/01 04:22:22;;;;;;;;;3.25;3.25;;;;;21.67;64.08;100337.19;2104980;28;45805;-65
2023/07/01 04:23:23;;;;;;;;;2.00;0.75;;;;;21.66;63.94;100335.44;2105091;27;45293;-64
2023/07/01 04:24:23;;;;;;;;;2.00;2.00;;;;;21.64;64.05;100335.56;2103858;28;46291;-64
2023/07/01 04:25:23;;;;;;;;;1.00;1.00;;;;;21.62;64.22;100337.53;2100918;28;45523;-66
2023/07/01 04:26:26;;;;;;;;;1.00;1.00;;;;;21.61;64.12;100329.53;2094054;28;46630;-65
2023/07/01 04:27:27;;;;;;;;;1.00;1.00;;;;;21.60;63.85;100328.69;2095952;28;45842;-63
2023/07/01 04:28:27;;;;;;;;;2.00;1.33;;;;;21.60;64.47;100327.81;2096626;28;46506;-64
2023/07/01 04:29:27;;;;;;;;;3.00;2.00;;;;;21.60;64.07;100322.41;2101975;28;46299;-64
2023/07/01 04:30:28;;;;;;;;;1.00;0.33;;;;;21.60;64.01;100322.41;2104607;28;45328;-64
2023/07/01 04:31:28;;;;;;;;;3.00;1.67;;;;;21.59;64.54;100329.63;2104821;28;46133;-64
2023/07/01 04:32:29;;;;;;;;;0.00;0.00;;;;;21.59;64.87;100329.63;2104724;27;46856;-63
2023/07/01 04:33:29;;;;;;;;;0.00;0.00;;;;;21.59;65.17;100331.47;2096189;28;45832;-65
2023/07/01 04:34:29;;;;;;;;;0.67;0.67;;;;;21.58;64.76;100333.31;2094274;28;46579;-63
2023/07/01 04:35:30;;;;;;;;;0.00;0.00;;;;;21.58;65.13;100330.59;2108724;27;45527;-64
2023/07/01 04:36:30;;;;;;;;;1.33;1.33;;;;;21.59;65.04;100334.16;2102471;28;45840;-65
2023/07/01 04:37:30;;;;;;;;;0.33;0.33;;;;;21.60;65.18;100334.09;2096425;28;46533;-65
2023/07/01 04:38:31;;;;;;;;;1.67;0.00;;;;;21.61;65.14;100325.00;2096836;28;45592;-64
2023/07/01 04:39:31;;;;;;;;;1.00;0.00;;;;;21.63;64.73;100328.44;2096233;28;45632;-64
2023/07/01 04:40:31;;;;;;;;;1.33;0.67;;;;;21.65;65.06;100328.31;2098205;28;47062;-64
2023/07/01 04:41:32;;;;;;;;;0.00;0.00;;;;;21.64;65.22;100330.16;2105062;28;45883;-65
2023/07/01 04:42:34;;;;;;;;;0.00;0.00;;;;;21.64;64.94;100332.00;2105039;28;45763;-64
2023/07/01 04:43:35;;;;;;;;;0.00;0.00;;;;;21.64;65.26;100326.59;2105319;28;46060;-64
2023/07/01 04:44:35;;;;;;;;;0.00;0.00;;;;;21.64;65.05;100324.78;2097097;28;46262;-65
2023/07/01 04:45:35;;;;;;;;;0.00;0.00;;;;;21.63;65.43;100323.03;2099892;28;46494;-66
2023/07/01 04:46:36;;;;;;;;;0.00;0.00;;;;;21.64;65.17;100322.06;2100992;28;45931;-64